Oak Bay, Washington
Current Conditions -  °F | °C
As of 7:56 AM on Thursday 23 Oct 2014 (Local Time) from KNUW Reporting Station
Overcast Overcast  
Wind Chill: 56°   Ceiling: 6000
Heat Index: 56°   Visibility: 10mi
Dew Point: 49°   Wind: 18mph
Humidity: 77%   Direction: 150°SSE
Pressure: 29.7"   Gusts: 28mph
Location:  48.0288°N, 122.77°W
Report Text: KNUW 231456Z 15016G24KT 10SM SCT017 BKN060 OVC075 13/09 A2970 RMK AO2 PK WND 16029/1420 RAE53 SLP060 P0000 60000 T01330094 53002
Loading
Personal Weather Stations






























Interactive Weather Map
Tropical Storm Tracking
New forecast layout! Learn more

10-Day Weather Forecast

Advertisements
Track Severe Weather on mobile